Time;durP1;ratioP1;P1;durP2;ratioP2;P2;SDS_P1;SDS_P2;PMS_P1;PMS_P2;Temp;Humidity;BMP_temperature;BMP_pressure;BME280_temperature;BME280_humidity;BME280_pressure;Samples;Min_cycle;Max_cycle;Signal;HPM_P1;HPM_P2
2023/03/07 00:01:37;;;;;;;11.52;7.07;;;;;;;;;;5079387;28;20048;-57
2023/03/07 00:04:03;;;;;;;13.60;6.60;;;;;;;;;;5081530;28;20050;-57
2023/03/07 00:06:29;;;;;;;13.52;7.03;;;;;;;;;;5080425;27;20045;-57
2023/03/07 00:08:57;;;;;;;15.23;6.80;;;;;;;;;;5078550;28;20143;-57
2023/03/07 00:11:23;;;;;;;12.07;6.70;;;;;;;;;;5084464;28;20139;-57
2023/03/07 00:13:49;;;;;;;12.15;5.68;;;;;;;;;;5083229;28;20613;-57
2023/03/07 00:16:16;;;;;;;10.73;5.75;;;;;;;;;;5082261;28;20578;-57
2023/03/07 00:18:42;;;;;;;13.15;5.95;;;;;;;;;;5083626;28;20040;-57
2023/03/07 00:21:10;;;;;;;12.70;7.30;;;;;;;;;;5083570;28;20106;-57
2023/03/07 00:23:37;;;;;;;10.75;6.13;;;;;;;;;;5083254;28;20039;-58
2023/03/07 00:26:04;;;;;;;12.23;5.93;;;;;;;;;;5081903;28;20044;-57
2023/03/07 00:28:30;;;;;;;11.93;5.68;;;;;;;;;;5084196;28;20040;-57
2023/03/07 00:31:00;;;;;;;12.90;6.82;;;;;;;;;;5083346;28;20114;-57
2023/03/07 00:33:27;;;;;;;11.52;5.80;;;;;;;;;;5084780;28;20727;-58
2023/03/07 00:35:57;;;;;;;12.63;6.63;;;;;;;;;;5081956;28;20040;-57
2023/03/07 00:38:24;;;;;;;11.65;6.25;;;;;;;;;;5079832;28;20127;-57
2023/03/07 00:40:57;;;;;;;12.10;6.18;;;;;;;;;;5081608;28;20546;-57
2023/03/07 00:43:23;;;;;;;11.25;6.57;;;;;;;;;;5081897;28;20518;-57
2023/03/07 00:45:49;;;;;;;12.40;6.43;;;;;;;;;;5079483;28;20053;-58
2023/03/07 00:48:17;;;;;;;10.35;5.43;;;;;;;;;;5083089;28;20044;-58
2023/03/07 00:50:43;;;;;;;11.68;5.40;;;;;;;;;;5081671;28;20546;-57
2023/03/07 00:53:09;;;;;;;10.98;6.30;;;;;;;;;;5082646;28;20288;-57
2023/03/07 00:55:35;;;;;;;12.23;6.78;;;;;;;;;;5079786;28;20047;-57
2023/03/07 00:58:01;;;;;;;11.60;5.63;;;;;;;;;;5083658;28;20506;-57
2023/03/07 01:00:27;;;;;;;13.40;6.57;;;;;;;;;;5081237;28;20094;-57
2023/03/07 01:02:53;;;;;;;15.25;5.78;;;;;;;;;;5081652;28;20556;-57
2023/03/07 01:05:19;;;;;;;12.45;5.57;;;;;;;;;;5080401;28;20623;-58
2023/03/07 01:07:45;;;;;;;13.77;6.85;;;;;;;;;;5081405;28;20530;-57
2023/03/07 01:10:12;;;;;;;12.88;6.28;;;;;;;;;;5080942;28;20526;-58
2023/03/07 01:12:38;;;;;;;10.70;6.18;;;;;;;;;;5081430;28;20048;-57
2023/03/07 01:15:05;;;;;;;11.00;5.90;;;;;;;;;;5079759;28;20057;-57
2023/03/07 01:17:33;;;;;;;13.07;7.07;;;;;;;;;;5083077;28;20091;-57
2023/03/07 01:19:59;;;;;;;12.48;7.32;;;;;;;;;;5082992;28;20372;-57
2023/03/07 01:22:25;;;;;;;16.45;6.60;;;;;;;;;;5081660;28;20604;-57
2023/03/07 01:24:51;;;;;;;13.73;7.15;;;;;;;;;;5082875;28;20048;-58
2023/03/07 01:27:17;;;;;;;15.15;6.90;;;;;;;;;;5081841;28;20037;-58
2023/03/07 01:29:43;;;;;;;12.85;6.40;;;;;;;;;;5082505;28;20131;-57
2023/03/07 01:32:09;;;;;;;13.68;6.88;;;;;;;;;;5082418;28;20122;-57
2023/03/07 01:34:36;;;;;;;15.25;6.18;;;;;;;;;;5081034;28;20080;-57
2023/03/07 01:37:02;;;;;;;10.20;5.47;;;;;;;;;;5081232;28;20056;-57
2023/03/07 01:39:28;;;;;;;15.77;6.97;;;;;;;;;;5081921;28;20112;-57
2023/03/07 01:41:54;;;;;;;15.38;8.23;;;;;;;;;;5079008;28;20082;-57
2023/03/07 01:44:21;;;;;;;12.82;6.85;;;;;;;;;;5080848;28;20071;-57
2023/03/07 01:46:55;;;;;;;13.23;7.15;;;;;;;;;;5080512;28;20071;-57
2023/03/07 01:49:30;;;;;;;12.65;6.32;;;;;;;;;;5080853;28;20043;-57
2023/03/07 01:52:14;;;;;;;14.48;6.32;;;;;;;;;;5080631;28;20128;-57
2023/03/07 01:54:47;;;;;;;12.00;6.20;;;;;;;;;;5079163;28;21596;-57
2023/03/07 01:57:13;;;;;;;13.70;7.97;;;;;;;;;;5082170;28;20170;-58
2023/03/07 01:59:44;;;;;;;16.48;7.22;;;;;;;;;;5080363;28;20133;-57
2023/03/07 02:02:13;;;;;;;11.90;5.05;;;;;;;;;;5079832;28;20201;-57
2023/03/07 02:05:00;;;;;;;15.15;6.50;;;;;;;;;;5080671;28;20527;-58
2023/03/07 02:07:28;;;;;;;11.70;6.72;;;;;;;;;;5083114;28;20052;-57
2023/03/07 02:09:55;;;;;;;13.25;6.45;;;;;;;;;;5082411;28;20067;-57
2023/03/07 02:12:21;;;;;;;13.45;6.50;;;;;;;;;;5080759;28;20533;-58
2023/03/07 02:14:48;;;;;;;14.48;6.97;;;;;;;;;;5080881;28;20102;-57
2023/03/07 02:17:14;;;;;;;13.30;8.07;;;;;;;;;;5078953;28;20036;-57
2023/03/07 02:19:49;;;;;;;14.18;7.03;;;;;;;;;;5082396;28;20049;-57
2023/03/07 02:22:17;;;;;;;15.43;3.97;;;;;;;;;;5081126;28;20076;-57
2023/03/07 02:24:48;;;;;;;11.18;5.30;;;;;;;;;;5077040;28;20561;-57
2023/03/07 02:27:14;;;;;;;12.60;7.45;;;;;;;;;;5083131;28;20147;-57
2023/03/07 02:29:40;;;;;;;12.55;5.45;;;;;;;;;;5081196;28;20044;-57
2023/03/07 02:32:06;;;;;;;11.18;6.13;;;;;;;;;;5080522;28;20040;-57
2023/03/07 02:34:33;;;;;;;14.27;4.65;;;;;;;;;;5080616;28;20106;-57
2023/03/07 02:37:08;;;;;;;13.10;7.47;;;;;;;;;;5081508;28;20040;-58
2023/03/07 02:39:35;;;;;;;14.88;7.15;;;;;;;;;;5082101;28;20040;-57
2023/03/07 02:42:06;;;;;;;12.85;6.82;;;;;;;;;;5079023;28;20047;-58
2023/03/07 02:44:32;;;;;;;12.30;6.10;;;;;;;;;;5061855;28;20546;-57
2023/03/07 02:46:58;;;;;;;13.00;6.70;;;;;;;;;;5080279;28;20044;-58
2023/03/07 02:49:24;;;;;;;10.60;5.90;;;;;;;;;;5081104;28;20036;-58
2023/03/07 02:51:56;;;;;;;11.55;7.60;;;;;;;;;;5080424;28;20125;-58
2023/03/07 02:54:23;;;;;;;12.93;6.67;;;;;;;;;;5079147;28;20063;-57
2023/03/07 02:56:49;;;;;;;15.80;6.20;;;;;;;;;;5079591;28;20324;-57
2023/03/07 02:59:15;;;;;;;16.08;6.78;;;;;;;;;;5077645;28;20047;-57
2023/03/07 03:01:41;;;;;;;11.93;6.35;;;;;;;;;;5077503;28;20056;-57
2023/03/07 03:04:07;;;;;;;9.90;6.10;;;;;;;;;;5079553;28;20039;-57
2023/03/07 03:06:34;;;;;;;12.95;6.13;;;;;;;;;;5078631;28;20044;-57
2023/03/07 03:09:00;;;;;;;8.10;4.63;;;;;;;;;;5081289;28;20142;-57
2023/03/07 03:11:26;;;;;;;14.73;7.28;;;;;;;;;;5079862;28;20044;-57
2023/03/07 03:13:52;;;;;;;11.65;7.05;;;;;;;;;;5080295;28;20048;-57
2023/03/07 03:16:18;;;;;;;9.40;5.05;;;;;;;;;;5077923;28;20110;-57
2023/03/07 03:18:44;;;;;;;11.80;6.07;;;;;;;;;;5076986;28;20322;-58
2023/03/07 03:21:11;;;;;;;13.75;6.22;;;;;;;;;;5079368;28;20051;-57
2023/03/07 03:23:37;;;;;;;10.48;6.90;;;;;;;;;;5082502;28;20043;-58
2023/03/07 03:26:06;;;;;;;12.93;6.65;;;;;;;;;;5082275;28;20041;-58
2023/03/07 03:28:33;;;;;;;12.80;7.32;;;;;;;;;;5085638;28;20075;-57
2023/03/07 03:31:00;;;;;;;11.63;6.88;;;;;;;;;;5083785;28;20616;-57
2023/03/07 03:33:28;;;;;;;11.23;6.00;;;;;;;;;;5083070;28;20880;-57
2023/03/07 03:35:54;;;;;;;12.27;6.00;;;;;;;;;;5084202;28;20092;-58
2023/03/07 03:38:20;;;;;;;12.63;6.40;;;;;;;;;;5084924;28;20041;-58
2023/03/07 03:40:46;;;;;;;12.02;6.25;;;;;;;;;;5083146;28;20123;-58
2023/03/07 03:43:12;;;;;;;10.45;5.82;;;;;;;;;;5084796;28;20045;-57
2023/03/07 03:45:39;;;;;;;13.73;6.18;;;;;;;;;;5082360;28;20550;-57
2023/03/07 03:48:05;;;;;;;20.65;7.78;;;;;;;;;;5082586;28;20044;-57
2023/03/07 03:50:31;;;;;;;9.32;5.13;;;;;;;;;;5084930;28;20093;-57
2023/03/07 03:52:59;;;;;;;11.10;6.35;;;;;;;;;;5084980;28;20083;-57
2023/03/07 03:55:25;;;;;;;12.48;6.38;;;;;;;;;;5080381;28;20540;-57
2023/03/07 03:57:51;;;;;;;15.23;6.95;;;;;;;;;;5084380;28;20032;-57
2023/03/07 04:00:18;;;;;;;10.38;6.68;;;;;;;;;;5084127;28;20067;-57
2023/03/07 04:02:44;;;;;;;12.23;6.60;;;;;;;;;;5081174;28;20127;-57
2023/03/07 04:05:11;;;;;;;13.57;5.93;;;;;;;;;;5081960;28;20046;-57
2023/03/07 04:07:38;;;;;;;12.13;6.90;;;;;;;;;;5083241;28;20048;-57
2023/03/07 04:10:04;;;;;;;8.82;5.07;;;;;;;;;;5083672;28;20460;-57
2023/03/07 04:12:30;;;;;;;10.43;5.10;;;;;;;;;;5081784;28;21250;-58
2023/03/07 04:14:56;;;;;;;10.93;5.20;;;;;;;;;;5081916;28;20080;-57
2023/03/07 04:17:22;;;;;;;10.27;5.68;;;;;;;;;;5080804;28;20469;-57
2023/03/07 04:19:48;;;;;;;8.95;6.07;;;;;;;;;;5082793;28;20048;-57
2023/03/07 04:22:15;;;;;;;18.80;6.53;;;;;;;;;;5081177;28;20126;-57
2023/03/07 04:24:41;;;;;;;24.60;7.07;;;;;;;;;;5080776;28;20044;-57
2023/03/07 04:27:07;;;;;;;10.05;5.55;;;;;;;;;;5082745;28;20047;-57
2023/03/07 04:29:33;;;;;;;15.82;7.10;;;;;;;;;;5079627;28;20037;-57
2023/03/07 04:31:59;;;;;;;10.07;6.93;;;;;;;;;;5079912;28;20145;-57
2023/03/07 04:34:25;;;;;;;9.60;5.00;;;;;;;;;;5079588;28;20051;-57
2023/03/07 04:36:51;;;;;;;10.65;4.47;;;;;;;;;;5081890;28;20048;-57
2023/03/07 04:39:17;;;;;;;12.90;4.78;;;;;;;;;;5081283;28;20131;-57
2023/03/07 04:41:43;;;;;;;9.77;4.53;;;;;;;;;;5081707;28;20040;-57
2023/03/07 04:44:10;;;;;;;15.48;6.13;;;;;;;;;;5082715;28;20040;-57
2023/03/07 04:46:36;;;;;;;13.32;5.70;;;;;;;;;;5080854;28;20044;-57
2023/03/07 04:49:02;;;;;;;10.15;4.70;;;;;;;;;;5080356;28;20036;-57
2023/03/07 04:51:28;;;;;;;9.32;4.93;;;;;;;;;;5081096;28;20154;-58
2023/03/07 04:53:54;;;;;;;11.98;5.75;;;;;;;;;;5078158;28;20071;-57
2023/03/07 04:56:20;;;;;;;11.23;5.07;;;;;;;;;;5083586;28;20039;-57
2023/03/07 04:58:46;;;;;;;9.30;4.82;;;;;;;;;;5081999;28;20037;-57
2023/03/07 05:01:13;;;;;;;11.07;5.20;;;;;;;;;;5081437;28;20047;-58
2023/03/07 05:03:39;;;;;;;12.18;5.82;;;;;;;;;;5079839;28;20051;-57
2023/03/07 05:06:06;;;;;;;13.68;8.57;;;;;;;;;;5080782;28;20059;-57
2023/03/07 05:08:33;;;;;;;10.82;5.97;;;;;;;;;;5080578;28;20051;-57
2023/03/07 05:10:59;;;;;;;10.10;5.68;;;;;;;;;;5080090;28;20045;-57
2023/03/07 05:13:25;;;;;;;10.18;5.15;;;;;;;;;;5078601;28;20040;-57
2023/03/07 05:15:52;;;;;;;12.60;5.28;;;;;;;;;;5034733;28;1331972;-57
2023/03/07 05:18:18;;;;;;;9.93;5.30;;;;;;;;;;5080839;28;20043;-57
2023/03/07 05:20:45;;;;;;;12.20;6.35;;;;;;;;;;5082860;28;20101;-57
2023/03/07 05:23:11;;;;;;;9.48;5.10;;;;;;;;;;5083088;28;20055;-57
2023/03/07 05:25:37;;;;;;;9.43;5.22;;;;;;;;;;5079935;28;20040;-57
2023/03/07 05:28:03;;;;;;;9.63;5.97;;;;;;;;;;5081172;28;20067;-57
2023/03/07 05:30:29;;;;;;;11.25;5.43;;;;;;;;;;5081212;28;20043;-57
2023/03/07 05:32:55;;;;;;;11.35;6.43;;;;;;;;;;5081025;28;21243;-57
2023/03/07 05:35:23;;;;;;;11.43;5.45;;;;;;;;;;5078472;28;20055;-57
2023/03/07 05:37:50;;;;;;;8.68;5.18;;;;;;;;;;5081159;28;20068;-57
2023/03/07 05:40:16;;;;;;;13.75;6.20;;;;;;;;;;5082836;28;20071;-57
2023/03/07 05:42:42;;;;;;;8.77;4.82;;;;;;;;;;5080083;28;20076;-57
2023/03/07 05:45:09;;;;;;;10.98;5.80;;;;;;;;;;5079786;28;20036;-57
2023/03/07 05:47:35;;;;;;;10.43;5.38;;;;;;;;;;5080698;28;20044;-57
2023/03/07 05:50:01;;;;;;;9.82;4.75;;;;;;;;;;5081369;28;20123;-57
2023/03/07 05:52:28;;;;;;;9.43;5.25;;;;;;;;;;5082816;28;20056;-57
2023/03/07 05:54:54;;;;;;;11.45;6.13;;;;;;;;;;5079265;28;20047;-57
2023/03/07 05:57:20;;;;;;;10.55;5.18;;;;;;;;;;5081180;28;20966;-57
2023/03/07 05:59:46;;;;;;;11.95;5.85;;;;;;;;;;5079025;28;20051;-57
2023/03/07 06:02:13;;;;;;;14.27;6.00;;;;;;;;;;5080192;28;20507;-57
2023/03/07 06:04:39;;;;;;;11.38;5.88;;;;;;;;;;5077978;28;20063;-57
2023/03/07 06:07:05;;;;;;;14.32;6.85;;;;;;;;;;5075811;28;20052;-58
2023/03/07 06:09:31;;;;;;;12.40;5.65;;;;;;;;;;5072467;28;20048;-57
2023/03/07 06:11:57;;;;;;;11.77;6.32;;;;;;;;;;5078675;28;20067;-57
2023/03/07 06:14:24;;;;;;;11.88;5.63;;;;;;;;;;5076122;28;20047;-57
2023/03/07 06:16:50;;;;;;;13.98;7.47;;;;;;;;;;5078469;28;20051;-57
2023/03/07 06:19:16;;;;;;;14.30;6.53;;;;;;;;;;5080618;28;20052;-58
2023/03/07 06:21:43;;;;;;;11.20;6.00;;;;;;;;;;5073824;28;20648;-57
2023/03/07 06:24:09;;;;;;;14.90;7.20;;;;;;;;;;5079751;28;20327;-57
2023/03/07 06:26:35;;;;;;;9.68;4.88;;;;;;;;;;5078945;27;20074;-57
2023/03/07 06:29:01;;;;;;;12.80;6.90;;;;;;;;;;5078741;28;20176;-57
2023/03/07 06:31:27;;;;;;;13.57;5.88;;;;;;;;;;5076336;28;20045;-57
2023/03/07 06:33:53;;;;;;;15.13;6.68;;;;;;;;;;5082039;28;20028;-57
2023/03/07 06:36:19;;;;;;;13.10;7.65;;;;;;;;;;5080797;28;20496;-57
2023/03/07 06:38:46;;;;;;;12.02;6.45;;;;;;;;;;5082670;28;20047;-57
2023/03/07 06:41:12;;;;;;;9.80;6.45;;;;;;;;;;5079366;28;20046;-57
2023/03/07 06:43:39;;;;;;;12.68;6.32;;;;;;;;;;5080511;28;20036;-57
2023/03/07 06:46:05;;;;;;;13.18;6.45;;;;;;;;;;5081262;28;20044;-57
2023/03/07 06:48:33;;;;;;;15.77;5.88;;;;;;;;;;5082710;28;20039;-57
2023/03/07 06:50:59;;;;;;;12.02;6.15;;;;;;;;;;5074117;28;20044;-57
2023/03/07 06:53:25;;;;;;;9.18;4.90;;;;;;;;;;5071500;28;20041;-57
2023/03/07 06:55:51;;;;;;;10.45;5.90;;;;;;;;;;5070239;28;20051;-57
2023/03/07 06:58:18;;;;;;;12.82;6.63;;;;;;;;;;5076037;28;20041;-58
2023/03/07 07:00:44;;;;;;;13.30;6.53;;;;;;;;;;5079493;28;20039;-57
2023/03/07 07:03:14;;;;;;;13.70;7.90;;;;;;;;;;5078515;28;20051;-57
2023/03/07 07:05:40;;;;;;;15.73;7.20;;;;;;;;;;5078409;28;20513;-57
2023/03/07 07:08:06;;;;;;;11.27;6.18;;;;;;;;;;5078273;28;20048;-57
2023/03/07 07:10:32;;;;;;;11.75;5.90;;;;;;;;;;5078648;28;20040;-57
2023/03/07 07:12:58;;;;;;;17.75;7.85;;;;;;;;;;5077232;28;20138;-57
2023/03/07 07:15:25;;;;;;;11.30;6.18;;;;;;;;;;5079574;28;20040;-57
2023/03/07 07:17:51;;;;;;;16.38;7.93;;;;;;;;;;5076991;28;20041;-57
2023/03/07 07:20:18;;;;;;;12.95;7.05;;;;;;;;;;5077673;28;20121;-57
2023/03/07 07:22:44;;;;;;;14.30;7.38;;;;;;;;;;5078315;28;20036;-57
2023/03/07 07:25:10;;;;;;;13.40;5.75;;;;;;;;;;5076866;28;20039;-57
2023/03/07 07:27:36;;;;;;;13.45;7.28;;;;;;;;;;5079287;28;20071;-57
2023/03/07 07:30:05;;;;;;;14.23;6.97;;;;;;;;;;5078826;28;20079;-57
2023/03/07 07:32:31;;;;;;;16.25;7.53;;;;;;;;;;5077600;28;20103;-57
2023/03/07 07:34:57;;;;;;;19.05;7.18;;;;;;;;;;5073740;28;20747;-57
2023/03/07 07:37:23;;;;;;;15.07;7.35;;;;;;;;;;5074997;28;20890;-57
2023/03/07 07:39:50;;;;;;;11.35;6.35;;;;;;;;;;5076900;28;20070;-57
2023/03/07 07:42:16;;;;;;;16.67;7.57;;;;;;;;;;5077888;28;20041;-57
2023/03/07 07:44:42;;;;;;;13.73;8.02;;;;;;;;;;5076241;28;20067;-57
2023/03/07 07:47:09;;;;;;;20.77;8.02;;;;;;;;;;5076162;28;20579;-57
2023/03/07 07:49:35;;;;;;;15.93;8.20;;;;;;;;;;5076243;28;20067;-57
2023/03/07 07:52:01;;;;;;;13.68;6.35;;;;;;;;;;5079158;28;20127;-57
2023/03/07 07:54:27;;;;;;;10.68;6.53;;;;;;;;;;5077546;28;20163;-57
2023/03/07 07:56:53;;;;;;;23.67;7.00;;;;;;;;;;5081421;28;20511;-57
2023/03/07 07:59:20;;;;;;;14.73;6.95;;;;;;;;;;5081661;28;20041;-58
2023/03/07 08:01:46;;;;;;;10.15;4.63;;;;;;;;;;5081782;28;20079;-58
2023/03/07 08:04:12;;;;;;;12.48;6.45;;;;;;;;;;5082436;28;20512;-57
2023/03/07 08:06:38;;;;;;;15.00;6.80;;;;;;;;;;5082915;28;21045;-57
2023/03/07 08:09:04;;;;;;;13.80;7.40;;;;;;;;;;5086351;28;20048;-57
2023/03/07 08:11:30;;;;;;;12.68;6.45;;;;;;;;;;5086318;28;20036;-57
2023/03/07 08:13:56;;;;;;;11.35;6.50;;;;;;;;;;5082347;28;20036;-57
2023/03/07 08:16:23;;;;;;;12.45;6.50;;;;;;;;;;5085657;28;20057;-57
2023/03/07 08:18:55;;;;;;;16.73;7.47;;;;;;;;;;5085702;28;20133;-57
2023/03/07 08:21:22;;;;;;;9.93;4.32;;;;;;;;;;5084394;28;20041;-57
2023/03/07 08:23:48;;;;;;;12.43;6.30;;;;;;;;;;5082957;28;20047;-57
2023/03/07 08:26:16;;;;;;;15.95;7.75;;;;;;;;;;5084940;28;20072;-57
2023/03/07 08:28:42;;;;;;;9.15;4.75;;;;;;;;;;5086278;28;20041;-57
2023/03/07 08:31:08;;;;;;;13.90;6.90;;;;;;;;;;5086544;28;20040;-57
2023/03/07 08:33:34;;;;;;;12.40;6.68;;;;;;;;;;5084986;28;20132;-57
2023/03/07 08:36:00;;;;;;;10.05;5.30;;;;;;;;;;5085541;28;20120;-57
2023/03/07 08:38:26;;;;;;;8.98;5.50;;;;;;;;;;5085017;28;20088;-57
2023/03/07 08:40:52;;;;;;;11.20;6.35;;;;;;;;;;5083807;28;20111;-57
2023/03/07 08:43:18;;;;;;;12.95;6.60;;;;;;;;;;5085404;28;20051;-57
2023/03/07 08:45:45;;;;;;;13.13;6.57;;;;;;;;;;5085587;28;20049;-57
2023/03/07 08:48:11;;;;;;;15.57;6.10;;;;;;;;;;5085300;28;20044;-57
2023/03/07 08:50:38;;;;;;;12.82;7.07;;;;;;;;;;5085187;28;20032;-57
2023/03/07 08:53:04;;;;;;;13.15;6.35;;;;;;;;;;5084878;28;20051;-57
2023/03/07 08:55:34;;;;;;;12.00;5.82;;;;;;;;;;5083054;28;20045;-57
2023/03/07 08:58:00;;;;;;;12.25;5.55;;;;;;;;;;5083833;28;20048;-57
2023/03/07 09:00:26;;;;;;;13.45;5.78;;;;;;;;;;5087190;28;20041;-56
2023/03/07 09:02:53;;;;;;;10.80;5.50;;;;;;;;;;5085696;28;20037;-57
2023/03/07 09:05:19;;;;;;;12.05;4.75;;;;;;;;;;5085013;28;20573;-57
2023/03/07 09:07:45;;;;;;;12.70;5.95;;;;;;;;;;5083140;28;20048;-57
2023/03/07 09:10:11;;;;;;;13.35;5.38;;;;;;;;;;5083755;28;20581;-57
2023/03/07 09:12:37;;;;;;;14.35;5.28;;;;;;;;;;5083947;28;21275;-57
2023/03/07 09:15:04;;;;;;;11.32;6.57;;;;;;;;;;5084177;27;20167;-57
2023/03/07 09:17:30;;;;;;;11.60;4.82;;;;;;;;;;5085225;28;20075;-57
2023/03/07 09:19:56;;;;;;;11.48;4.80;;;;;;;;;;5084848;28;20114;-57
2023/03/07 09:22:22;;;;;;;9.18;5.60;;;;;;;;;;5083668;28;20102;-58
2023/03/07 09:24:48;;;;;;;9.25;5.15;;;;;;;;;;5083198;28;20066;-58
2023/03/07 09:27:15;;;;;;;8.80;5.93;;;;;;;;;;5084302;28;20070;-57
2023/03/07 09:29:41;;;;;;;9.90;4.97;;;;;;;;;;5084772;28;20119;-57
2023/03/07 09:32:07;;;;;;;9.38;5.43;;;;;;;;;;5084014;28;20115;-57
2023/03/07 09:34:33;;;;;;;8.68;5.18;;;;;;;;;;5084434;28;20041;-57
2023/03/07 09:36:59;;;;;;;9.13;4.50;;;;;;;;;;5083106;28;20075;-57
2023/03/07 09:39:25;;;;;;;9.45;5.20;;;;;;;;;;5081919;28;20127;-57
2023/03/07 09:42:05;;;;;;;8.68;3.75;;;;;;;;;;5085259;28;20604;-57
2023/03/07 09:44:31;;;;;;;7.97;4.63;;;;;;;;;;5082041;27;20089;-57
2023/03/07 09:46:57;;;;;;;12.63;4.80;;;;;;;;;;5082884;28;20046;-57
2023/03/07 09:49:33;;;;;;;10.27;4.78;;;;;;;;;;5081216;28;20059;-57
2023/03/07 09:52:00;;;;;;;7.95;4.60;;;;;;;;;;5084575;28;21259;-57
2023/03/07 09:54:32;;;;;;;9.23;4.90;;;;;;;;;;5085678;28;20036;-57
2023/03/07 09:56:58;;;;;;;;;;;;;;;;;;5085125;28;20158;-58
2023/03/07 09:59:39;;;;;;;7.68;4.10;;;;;;;;;;5083811;28;19920;-58
2023/03/07 10:02:17;;;;;;;9.40;4.25;;;;;;;;;;5084512;28;20051;-57
2023/03/07 10:04:47;;;;;;;8.50;4.88;;;;;;;;;;5083910;28;20044;-58
2023/03/07 10:07:15;;;;;;;6.68;4.13;;;;;;;;;;5080983;28;20037;-57
2023/03/07 10:09:41;;;;;;;8.77;5.00;;;;;;;;;;5077333;28;20127;-57
2023/03/07 10:12:10;;;;;;;7.32;4.30;;;;;;;;;;5076868;28;20044;-57
2023/03/07 10:14:39;;;;;;;8.05;4.50;;;;;;;;;;5074981;27;20121;-57
2023/03/07 10:17:23;;;;;;;7.10;5.13;;;;;;;;;;5081266;28;20111;-57
2023/03/07 10:19:51;;;;;;;10.57;5.43;;;;;;;;;;5076555;28;20049;-57
2023/03/07 10:22:23;;;;;;;8.25;4.78;;;;;;;;;;5082339;28;20043;-57
2023/03/07 10:25:03;;;;;;;10.18;5.00;;;;;;;;;;5078839;28;20036;-57
2023/03/07 10:27:30;;;;;;;7.88;3.67;;;;;;;;;;5081028;28;20043;-57
2023/03/07 10:29:58;;;;;;;10.27;4.03;;;;;;;;;;5079576;28;20045;-57
2023/03/07 10:32:39;;;;;;;6.15;3.88;;;;;;;;;;5079025;28;20049;-57
2023/03/07 10:35:11;;;;;;;9.23;4.28;;;;;;;;;;5078981;28;20698;-57
2023/03/07 10:37:43;;;;;;;7.07;4.30;;;;;;;;;;5082659;27;20068;-57
2023/03/07 10:40:28;;;;;;;6.72;2.95;;;;;;;;;;5079624;28;20181;-57
2023/03/07 10:42:54;;;;;;;6.22;4.03;;;;;;;;;;5076491;28;20047;-57
2023/03/07 10:45:21;;;;;;;7.88;4.75;;;;;;;;;;5080038;28;20091;-57
2023/03/07 10:47:47;;;;;;;7.63;3.35;;;;;;;;;;5080524;28;20766;-57
2023/03/07 10:50:13;;;;;;;6.35;3.78;;;;;;;;;;5080481;28;20044;-57
2023/03/07 10:52:40;;;;;;;7.35;3.90;;;;;;;;;;5081271;28;20647;-57
2023/03/07 10:55:25;;;;;;;5.80;3.53;;;;;;;;;;5078756;28;20159;-57
2023/03/07 10:57:51;;;;;;;9.40;4.78;;;;;;;;;;5079289;28;20044;-57
2023/03/07 11:00:17;;;;;;;8.27;3.33;;;;;;;;;;5078563;28;20040;-57
2023/03/07 11:02:45;;;;;;;7.00;3.55;;;;;;;;;;5078194;28;20559;-57
2023/03/07 11:05:20;;;;;;;7.43;4.50;;;;;;;;;;5080308;28;20046;-57
2023/03/07 11:07:46;;;;;;;6.40;4.07;;;;;;;;;;5080911;28;21273;-57
2023/03/07 11:10:27;;;;;;;13.65;4.28;;;;;;;;;;5075116;28;21282;-57
2023/03/07 11:12:55;;;;;;;6.25;3.40;;;;;;;;;;5078878;28;20041;-57
2023/03/07 11:15:23;;;;;;;3.70;2.05;;;;;;;;;;5080898;28;22234;-57
2023/03/07 11:17:50;;;;;;;5.35;3.45;;;;;;;;;;5077704;28;20037;-57
2023/03/07 11:20:22;;;;;;;7.43;3.63;;;;;;;;;;5080467;28;20102;-56
2023/03/07 11:22:49;;;;;;;6.10;3.58;;;;;;;;;;5079883;28;20514;-57
2023/03/07 11:25:21;;;;;;;7.35;4.20;;;;;;;;;;5075922;28;20052;-57
2023/03/07 11:27:47;;;;;;;8.23;3.10;;;;;;;;;;5079220;28;20049;-57
2023/03/07 11:30:32;;;;;;;7.03;3.42;;;;;;;;;;5078839;28;20557;-57
2023/03/07 11:33:17;;;;;;;7.07;4.43;;;;;;;;;;5074944;28;20025;-57
2023/03/07 11:35:49;;;;;;;7.00;3.75;;;;;;;;;;5078467;28;20047;-57
2023/03/07 11:38:22;;;;;;;7.47;3.42;;;;;;;;;;5079973;28;20074;-57
2023/03/07 11:40:51;;;;;;;11.02;4.50;;;;;;;;;;5079501;27;21220;-57
2023/03/07 11:43:20;;;;;;;6.55;3.63;;;;;;;;;;5080683;27;20592;-57
2023/03/07 11:45:55;;;;;;;4.65;3.13;;;;;;;;;;5082792;28;21268;-57
2023/03/07 11:48:30;;;;;;;9.90;4.03;;;;;;;;;;5081926;28;20043;-57
2023/03/07 11:50:57;;;;;;;10.02;5.00;;;;;;;;;;5084310;28;20086;-57
2023/03/07 11:53:43;;;;;;;7.47;4.75;;;;;;;;;;5081526;28;20043;-57
2023/03/07 11:56:17;;;;;;;7.03;3.85;;;;;;;;;;5081390;28;20093;-57
2023/03/07 11:58:49;;;;;;;6.68;4.15;;;;;;;;;;5082416;28;20510;-57
2023/03/07 12:01:15;;;;;;;6.53;3.92;;;;;;;;;;5080029;28;20040;-57
2023/03/07 12:03:44;;;;;;;6.45;3.88;;;;;;;;;;5083929;28;20908;-57
2023/03/07 12:06:10;;;;;;;9.70;4.05;;;;;;;;;;5083254;28;20041;-57
2023/03/07 12:08:39;;;;;;;7.22;4.07;;;;;;;;;;5082714;28;20049;-57
2023/03/07 12:11:14;;;;;;;7.22;3.85;;;;;;;;;;5080599;28;20033;-57
2023/03/07 12:13:43;;;;;;;9.50;4.38;;;;;;;;;;5082280;28;20052;-57
2023/03/07 12:16:12;;;;;;;7.50;3.40;;;;;;;;;;5083005;28;20534;-57
2023/03/07 12:18:45;;;;;;;8.43;4.03;;;;;;;;;;5080792;28;20131;-57
2023/03/07 12:21:26;;;;;;;6.57;3.45;;;;;;;;;;5078298;28;20128;-57
2023/03/07 12:24:16;;;;;;;5.30;3.47;;;;;;;;;;5082384;27;20299;-57
2023/03/07 12:26:54;;;;;;;4.03;2.33;;;;;;;;;;5079717;28;20135;-57
2023/03/07 12:29:39;;;;;;;8.20;4.80;;;;;;;;;;5081179;28;20041;-57
2023/03/07 12:32:25;;;;;;;7.30;3.80;;;;;;;;;;5081989;28;20051;-57
2023/03/07 12:34:55;;;;;;;7.00;3.80;;;;;;;;;;5078710;28;20652;-58
2023/03/07 12:37:23;;;;;;;8.25;3.35;;;;;;;;;;5081889;28;20644;-57
2023/03/07 12:39:57;;;;;;;6.13;3.10;;;;;;;;;;5080692;28;20040;-57
2023/03/07 12:42:23;;;;;;;6.32;3.17;;;;;;;;;;5081779;28;20040;-57
2023/03/07 12:44:56;;;;;;;7.88;3.63;;;;;;;;;;5078149;28;20051;-58
2023/03/07 12:47:31;;;;;;;3.95;2.78;;;;;;;;;;5080316;28;20083;-58
2023/03/07 12:50:10;;;;;;;6.53;3.97;;;;;;;;;;5077869;28;20585;-58
2023/03/07 12:52:36;;;;;;;6.13;3.38;;;;;;;;;;5080371;28;20036;-58
2023/03/07 12:55:21;;;;;;;6.18;3.35;;;;;;;;;;5082624;28;20044;-58
2023/03/07 12:57:53;;;;;;;7.53;3.67;;;;;;;;;;5084230;28;20613;-57
2023/03/07 13:00:20;;;;;;;5.35;3.05;;;;;;;;;;5083742;28;20044;-58
2023/03/07 13:02:57;;;;;;;5.50;3.28;;;;;;;;;;5083829;28;20044;-58
2023/03/07 13:05:24;;;;;;;10.70;3.50;;;;;;;;;;5086619;28;20562;-58
2023/03/07 13:07:50;;;;;;;6.50;3.53;;;;;;;;;;5085248;28;20044;-57
2023/03/07 13:10:20;;;;;;;6.95;3.90;;;;;;;;;;5084651;28;20568;-58
2023/03/07 13:12:47;;;;;;;6.65;3.85;;;;;;;;;;5085553;28;20045;-58
2023/03/07 13:15:16;;;;;;;4.45;3.28;;;;;;;;;;5084815;28;20794;-57
2023/03/07 13:17:42;;;;;;;5.22;2.80;;;;;;;;;;5084456;28;20087;-58
2023/03/07 13:20:14;;;;;;;9.45;4.22;;;;;;;;;;5083243;28;20546;-58
2023/03/07 13:22:40;;;;;;;5.55;3.25;;;;;;;;;;5085086;28;20044;-57
2023/03/07 13:25:25;;;;;;;2.70;1.80;;;;;;;;;;5083769;28;20044;-57
2023/03/07 13:27:55;;;;;;;6.93;3.90;;;;;;;;;;5084203;28;20044;-57
2023/03/07 13:30:31;;;;;;;7.50;4.07;;;;;;;;;;5083660;28;20049;-58
2023/03/07 13:33:01;;;;;;;5.72;3.42;;;;;;;;;;5084174;27;20045;-57
2023/03/07 13:35:27;;;;;;;9.23;3.40;;;;;;;;;;5085691;28;20097;-57
2023/03/07 13:38:04;;;;;;;4.07;2.53;;;;;;;;;;5084179;28;20052;-58
2023/03/07 13:40:33;;;;;;;6.30;3.88;;;;;;;;;;5081945;28;20098;-57
2023/03/07 13:42:59;;;;;;;4.80;2.83;;;;;;;;;;5079757;28;20220;-58
2023/03/07 13:45:37;;;;;;;9.18;3.58;;;;;;;;;;5084688;28;20096;-58
2023/03/07 13:48:22;;;;;;;5.13;2.90;;;;;;;;;;5084538;28;20098;-57
2023/03/07 13:50:48;;;;;;;6.15;3.70;;;;;;;;;;5085017;28;20044;-57
2023/03/07 13:53:15;;;;;;;5.43;3.13;;;;;;;;;;5100300;27;20075;-57
2023/03/07 13:55:45;;;;;;;12.80;3.80;;;;;;;;;;5082311;28;21080;-58
2023/03/07 13:58:18;;;;;;;6.28;2.72;;;;;;;;;;5083919;28;20052;-57
2023/03/07 14:01:07;;;;;;;4.82;2.53;;;;;;;;;;5083816;28;20036;-58
2023/03/07 14:03:37;;;;;;;6.63;3.72;;;;;;;;;;5080562;28;20127;-57
2023/03/07 14:06:09;;;;;;;5.90;3.20;;;;;;;;;;5082841;28;20074;-58
2023/03/07 14:08:35;;;;;;;4.68;2.92;;;;;;;;;;5084556;28;20044;-58
2023/03/07 14:11:01;;;;;;;5.88;3.15;;;;;;;;;;5083993;28;20064;-58
2023/03/07 14:13:47;;;;;;;9.93;3.80;;;;;;;;;;5083663;28;20071;-57
2023/03/07 14:16:35;;;;;;;8.13;5.28;;;;;;;;;;5081940;28;20625;-57
2023/03/07 14:19:02;;;;;;;6.78;3.35;;;;;;;;;;5081881;28;20044;-57
2023/03/07 14:21:37;;;;;;;4.80;2.58;;;;;;;;;;5083146;28;20538;-58
2023/03/07 14:24:22;;;;;;;6.72;3.15;;;;;;;;;;5083514;28;20050;-57
2023/03/07 14:26:50;;;;;;;8.00;3.58;;;;;;;;;;5084534;28;20118;-57
2023/03/07 14:29:23;;;;;;;5.53;3.72;;;;;;;;;;5083031;28;20048;-57
2023/03/07 14:31:55;;;;;;;8.70;4.90;;;;;;;;;;5084444;28;20102;-57
2023/03/07 14:34:21;;;;;;;6.20;3.50;;;;;;;;;;5084260;28;20119;-58
2023/03/07 14:37:08;;;;;;;6.18;3.33;;;;;;;;;;5084056;28;20288;-58
2023/03/07 14:39:46;;;;;;;9.13;3.88;;;;;;;;;;5079973;27;20088;-57
2023/03/07 14:42:21;;;;;;;9.05;3.80;;;;;;;;;;5084442;28;20045;-57
2023/03/07 14:44:47;;;;;;;6.03;3.20;;;;;;;;;;5083446;28;20052;-58